バクー の空港の天気 - METARとTAF

ヘイダル・アリエフ国際空港(バクー) ( UBBB / BAK ) - アゼルバイジャン バクー
飛行場実況気象(Metar)
観測時間07/29 06:30 AZT (07/29 02:30 UTC)
風向・風速北 8m/s
視程10km以上
天気現象
少しの雲 雲底高度 760m
気温25℃
湿度65%
気圧1014hPa
METARUBBB 290230Z 35016KT 9999 FEW025 25/18 Q1014 R88/CLRD// NOSIG
過去の天気等 Google飛行場航空写真 Wunderground天気予報

過去48時間のMETAR

飛行場予報(TAF)
発表時間: 7/29 03:15 AZT (7/28 23:15 UTC)
予報対象時間: 29日4時 AZT ~ 30日4時 AZT
風向・風速北北西 9m/s
視程10km以上
少しの積乱雲 雲底高度 1520m
全天の8割程度の雲 雲底高度 1520m
29日8時 AZT ~ 29日10時 AZT に徐々に
風向・風速北 6m/s
29日10時 AZT ~ 29日22時 AZT に一時的に
風向・風速北北東 4m/s
天気現象弱いしゅう雨
全天の4割程度の積乱雲 雲底高度 910m
TAF COR UBBB 282315Z 2900/2924 34018KT 9999 FEW050CB BKN050 TX28/2810Z TN22/2902Z
BECMG 2904/2906 35012KT
TEMPO 2906/2918 02008KT -SHRA SCT030CB